EST,Max TemperatureF,Mean TemperatureF,Min TemperatureF,Max Dew PointF,MeanDew PointF,Min DewpointF,Max Humidity, Mean Humidity, Min Humidity, Max Sea Level PressureIn, Mean Sea Level PressureIn, Min Sea Level PressureIn, Max VisibilityMiles, Mean VisibilityMiles, Min VisibilityMiles, Max Wind SpeedMPH, Mean Wind SpeedMPH, Max Gust SpeedMPH,PrecipitationIn, CloudCover, Events, WindDirDegrees
2012-11-1,64,48,33,34,26,18,81,50,19,30.03,29.98,29.92,10,10,10,13,4,22,0.00,0,,307
2012-11-2,73,54,35,46,41,32,100,64,36,30.04,30.00,29.96,10,10,10,12,2,18,0.00,1,,287
2012-11-3,80,61,42,55,48,43,100,68,32,30.14,30.06,30.03,10,10,10,9,1,,0.00,0,,262
2012-11-4,68,58,48,59,51,41,100,78,59,30.07,30.04,30.00,10,10,10,12,4,22,0.00,2,Rain,303
2012-11-5,62,52,41,45,36,28,87,58,31,30.10,30.03,29.94,10,10,10,10,6,,0.00,2,Rain,8
2012-11-6,48,47,44,46,44,43,100,91,82,29.99,29.95,29.90,10,9,5,14,3,21,0.00,8,Rain-Thunderstorm,44
2012-11-7,55,47,39,45,41,34,100,82,44,30.07,29.95,29.90,10,8,2,14,3,20,0.00,6,Rain,313
2012-11-8,60,48,35,41,37,34,100,75,36,30.21,30.15,30.07,10,10,5,13,5,17,0.00,0,,329
2012-11-9,69,51,33,43,36,30,100,70,24,30.32,30.24,30.19,10,9,5,7,1,,0.00,0,,336
2012-11-10,69,51,33,43,37,34,100,66,28,30.36,30.30,30.26,10,10,10,8,1,,0.00,0,,156
2012-11-11,68,52,37,52,45,36,93,73,52,30.41,30.33,30.29,10,10,10,18,3,23,0.00,2,,143
2012-11-12,64,54,44,63,54,41,100,90,77,30.32,30.26,30.19,10,9,4,15,8,22,0.00,7,Rain,168
2012-11-13,55,44,33,39,29,27,87,61,33,30.36,30.31,30.27,10,10,10,17,11,24,0.00,0,,354
2012-11-14,51,45,39,37,34,30,81,65,50,30.36,30.30,30.26,10,10,10,14,4,24,0.00,5,,79
2012-11-15,55,48,42,45,41,37,93,79,58,30.30,30.26,30.22,10,10,4,8,4,,0.00,7,,61
2012-11-16,60,48,35,45,38,34,100,73,39,30.32,30.28,30.24,10,9,4,7,1,,0.00,1,,35
2012-11-17,60,48,37,36,33,30,87,61,34,30.43,30.36,30.32,10,10,10,14,3,21,0.00,0,,64
2012-11-18,64,50,37,45,38,28,82,62,48,30.39,30.34,30.29,10,10,2,14,4,21,0.00,3,,56
2012-11-19,64,52,39,50,44,37,100,75,45,30.33,30.26,30.20,10,10,10,8,2,,0.00,5,,26
2012-11-20,68,56,44,46,43,41,100,69,37,30.20,30.14,30.08,10,10,10,7,1,,0.00,3,,316
2012-11-21,69,56,44,45,43,41,87,63,35,30.18,30.15,30.11,10,10,10,10,4,,0.00,2,,335
2012-11-22,68,52,37,45,41,37,100,70,37,30.27,30.21,30.18,10,10,7,8,1,,0.00,0,,159
2012-11-23,71,54,37,52,44,36,100,74,38,30.20,30.14,30.07,10,10,7,12,3,20,0.00,2,,298
2012-11-24,50,41,32,45,26,19,93,59,30,30.21,30.15,30.11,10,10,10,14,8,21,0.00,0,,325
2012-11-25,60,43,26,28,22,12,86,54,16,30.19,30.13,30.08,10,10,10,7,2,,0.00,0,,262
2012-11-26,68,49,30,37,30,27,87,54,23,30.23,30.16,30.13,10,10,10,10,1,,0.00,2,,165
2012-11-27,59,52,46,55,48,39,100,87,54,30.24,30.17,30.12,10,9,4,13,4,16,0.00,8,Rain,334
2012-11-28,57,45,33,41,33,25,100,68,31,30.38,30.33,30.24,10,10,5,12,7,16,0.00,2,,351
2012-11-29,60,45,30,37,33,27,93,71,36,30.43,30.36,30.32,10,10,10,8,1,,0.00,0,,149
2012-11-30,62,48,35,48,41,32,100,77,55,30.37,30.33,30.27,10,10,7,7,1,,0.00,5,,160